Time;durP1;ratioP1;P1;durP2;ratioP2;P2;SDS_P1;SDS_P2;PMS_P1;PMS_P2;Temp;Humidity;BMP_temperature;BMP_pressure;BME280_temperature;BME280_humidity;BME280_pressure;Samples;Min_cycle;Max_cycle;Signal;HPM_P1;HPM_P2
2021/12/09 00:02:19;;;;;;;;;;;5.70;59.40;;;;;;5073174;28;19952;-64
2021/12/09 00:04:45;;;;;;;;;;;5.70;59.40;;;;;;5073031;28;19908;-64
2021/12/09 00:07:11;;;;;;;;;;;5.70;59.40;;;;;;5073215;28;20074;-64
2021/12/09 00:09:36;;;;;;;;;;;5.80;59.40;;;;;;5071951;28;20003;-64
2021/12/09 00:12:02;;;;;;;;;;;5.70;59.30;;;;;;5073138;28;19908;-64
2021/12/09 00:14:30;;;;;;;;;;;5.70;59.30;;;;;;5073059;28;19909;-64
2021/12/09 00:16:59;;;;;;;;;;;5.70;59.40;;;;;;5072837;28;19928;-64
2021/12/09 00:19:25;;;;;;;;;;;5.80;59.50;;;;;;5073103;28;19959;-64
2021/12/09 00:21:51;;;;;;;;;;;5.80;59.50;;;;;;5073028;28;20308;-65
2021/12/09 00:24:17;;;;;;;;;;;5.80;59.40;;;;;;5073084;28;19909;-65
2021/12/09 00:26:46;;;;;;;;;;;5.80;59.40;;;;;;5073016;28;19951;-64
2021/12/09 00:29:12;;;;;;;;;;;5.90;59.50;;;;;;5073013;28;19909;-65
2021/12/09 00:31:38;;;;;;;;;;;5.90;59.40;;;;;;5073006;28;20259;-64
2021/12/09 00:34:04;;;;;;;;;;;5.90;59.30;;;;;;5072988;28;19916;-64
2021/12/09 00:36:43;;;;;;;;;;;5.90;59.30;;;;;;5072820;28;20007;-64
2021/12/09 00:39:10;;;;;;;;;;;5.90;59.40;;;;;;5072984;28;19909;-64
2021/12/09 00:41:36;;;;;;;;;;;5.90;59.40;;;;;;5072883;28;20321;-65
2021/12/09 00:44:02;;;;;;;;;;;5.90;59.40;;;;;;5072881;28;19908;-64
2021/12/09 00:46:27;;;;;;;;;;;5.90;59.40;;;;;;5072769;28;19916;-64
2021/12/09 00:48:53;;;;;;;;;;;5.90;59.90;;;;;;5072830;28;19912;-64
2021/12/09 00:51:19;;;;;;;;;;;5.90;59.30;;;;;;5072786;28;20290;-65
2021/12/09 00:53:45;;;;;;;;;;;5.90;59.30;;;;;;5075142;28;19908;-64
2021/12/09 00:56:11;;;;;;;;;;;6.00;59.30;;;;;;5076719;28;20388;-65
2021/12/09 00:58:38;;;;;;;;;;;6.00;59.20;;;;;;5076623;28;19909;-64
2021/12/09 01:01:05;;;;;;;;;;;6.00;59.20;;;;;;5076698;28;19916;-64
2021/12/09 01:03:31;;;;;;;;;;;6.00;59.20;;;;;;5076437;28;19940;-65
2021/12/09 01:05:57;;;;;;;;;;;6.00;59.20;;;;;;5076578;28;19908;-64
2021/12/09 01:08:22;;;;;;;;;;;6.00;59.20;;;;;;5075229;28;19958;-64
2021/12/09 01:10:48;;;;;;;;;;;6.00;59.20;;;;;;5076448;28;20000;-64
2021/12/09 01:13:13;;;;;;;;;;;6.00;59.20;;;;;;5076363;28;19914;-64
2021/12/09 01:15:39;;;;;;;;;;;6.00;59.20;;;;;;5075867;28;19916;-64
2021/12/09 01:18:05;;;;;;;;;;;6.10;59.20;;;;;;5076304;28;19912;-64
2021/12/09 01:20:31;;;;;;;;;;;6.10;59.10;;;;;;5076232;28;19909;-64
2021/12/09 01:22:57;;;;;;;;;;;6.10;59.10;;;;;;5076232;28;19909;-64
2021/12/09 01:25:24;;;;;;;;;;;6.10;59.10;;;;;;5076151;28;19962;-64
2021/12/09 01:27:52;;;;;;;;;;;6.10;59.10;;;;;;5076188;28;20293;-64
2021/12/09 01:30:19;;;;;;;;;;;6.10;59.00;;;;;;5076070;28;19908;-64
2021/12/09 01:32:54;;;;;;;;;;;6.10;59.00;;;;;;5076052;28;19909;-64
2021/12/09 01:35:21;;;;;;;;;;;6.10;58.90;;;;;;5076077;28;20371;-64
2021/12/09 01:37:48;;;;;;;;;;;6.10;58.80;;;;;;5074570;28;20016;-64
2021/12/09 01:40:14;;;;;;;;;;;6.10;58.80;;;;;;5074860;28;20336;-65
2021/12/09 01:42:40;;;;;;;;;;;6.10;58.80;;;;;;5075856;28;19908;-64
2021/12/09 01:45:06;;;;;;;;;;;6.10;58.80;;;;;;5076074;28;20350;-64
2021/12/09 01:47:32;;;;;;;;;;;6.20;58.80;;;;;;5075756;28;20344;-64
2021/12/09 01:49:58;;;;;;;;;;;6.20;58.80;;;;;;5075714;28;19915;-64
2021/12/09 01:52:24;;;;;;;;;;;6.20;58.70;;;;;;5075699;28;19909;-64
2021/12/09 01:54:49;;;;;;;;;;;6.20;58.70;;;;;;5075571;28;19909;-64
2021/12/09 01:57:15;;;;;;;;;;;6.20;58.60;;;;;;5075484;28;19919;-64
2021/12/09 01:59:41;;;;;;;;;;;6.10;58.50;;;;;;5075522;28;19908;-65
2021/12/09 02:02:06;;;;;;;;;;;6.10;58.60;;;;;;5075293;28;20259;-64
2021/12/09 02:04:32;;;;;;;;;;;6.20;58.60;;;;;;5074721;28;20277;-64
2021/12/09 02:06:58;;;;;;;;;;;6.10;58.50;;;;;;5075215;28;19908;-64
2021/12/09 02:09:23;;;;;;;;;;;6.10;58.60;;;;;;5075211;28;19908;-64
2021/12/09 02:11:49;;;;;;;;;;;6.10;58.70;;;;;;5075133;28;20311;-64
2021/12/09 02:14:15;;;;;;;;;;;6.10;58.70;;;;;;5075105;28;19908;-64
2021/12/09 02:16:40;;;;;;;;;;;6.10;58.80;;;;;;5074722;28;19927;-64
2021/12/09 02:19:08;;;;;;;;;;;6.10;58.90;;;;;;5075026;28;19915;-64
2021/12/09 02:21:34;;;;;;;;;;;6.10;59.00;;;;;;5074939;28;19909;-64
2021/12/09 02:24:01;;;;;;;;;;;6.10;59.10;;;;;;5074839;28;19912;-64
2021/12/09 02:26:30;;;;;;;;;;;6.10;59.20;;;;;;5074866;28;19909;-64
2021/12/09 02:28:56;;;;;;;;;;;6.10;59.30;;;;;;5074810;28;20381;-64
2021/12/09 02:31:22;;;;;;;;;;;6.10;59.30;;;;;;5074799;28;19908;-64
2021/12/09 02:33:48;;;;;;;;;;;6.10;59.40;;;;;;5074840;28;19916;-64
2021/12/09 02:36:14;;;;;;;;;;;6.10;59.40;;;;;;5074681;28;19912;-65
2021/12/09 02:38:44;;;;;;;;;;;6.10;59.50;;;;;;5074750;28;19915;-64
2021/12/09 02:41:21;;;;;;;;;;;6.10;59.50;;;;;;5074695;28;20452;-64
2021/12/09 02:43:49;;;;;;;;;;;6.00;59.50;;;;;;5074651;28;19995;-64
2021/12/09 02:46:16;;;;;;;;;;;6.00;59.50;;;;;;5074583;28;19912;-64
2021/12/09 02:48:42;;;;;;;;;;;6.00;59.60;;;;;;5074541;28;19908;-64
2021/12/09 02:51:08;;;;;;;;;;;6.00;59.70;;;;;;5074492;28;19908;-64
2021/12/09 02:53:34;;;;;;;;;;;5.90;59.70;;;;;;5074439;28;20277;-64
2021/12/09 02:55:59;;;;;;;;;;;5.90;59.70;;;;;;5074424;28;19916;-64
2021/12/09 02:58:25;;;;;;;;;;;5.90;59.80;;;;;;5074483;28;19913;-64
2021/12/09 03:00:51;;;;;;;;;;;5.90;59.80;;;;;;5074186;28;19905;-64
2021/12/09 03:03:16;;;;;;;;;;;5.90;59.80;;;;;;5074222;28;19909;-64
2021/12/09 03:05:44;;;;;;;;;;;5.80;59.90;;;;;;5074126;28;19905;-64
2021/12/09 03:08:10;;;;;;;;;;;5.80;60.00;;;;;;5074173;28;19917;-64
2021/12/09 03:10:36;;;;;;;;;;;5.80;60.10;;;;;;5074073;28;20368;-64
2021/12/09 03:13:05;;;;;;;;;;;5.80;60.20;;;;;;5072815;28;20001;-64
2021/12/09 03:15:33;;;;;;;;;;;5.80;60.20;;;;;;5073594;28;20404;-64
2021/12/09 03:17:58;;;;;;;;;;;5.80;60.40;;;;;;5073197;28;20026;-64
2021/12/09 03:20:24;;;;;;;;;;;5.80;60.40;;;;;;5073844;28;20376;-64
2021/12/09 03:22:50;;;;;;;;;;;5.80;60.50;;;;;;5073764;28;19915;-64
2021/12/09 03:25:16;;;;;;;;;;;5.80;60.50;;;;;;5073846;28;19993;-64
2021/12/09 03:27:42;;;;;;;;;;;5.90;60.60;;;;;;5073692;28;19915;-64
2021/12/09 03:30:09;;;;;;;;;;;5.90;60.60;;;;;;5069436;28;19920;-64
2021/12/09 03:32:34;;;;;;;;;;;5.90;60.60;;;;;;5064554;28;19920;-65
2021/12/09 03:35:00;;;;;;;;;;;5.90;60.60;;;;;;5053533;28;19908;-65
2021/12/09 03:37:27;;;;;;;;;;;5.90;60.60;;;;;;5053460;28;19913;-64
2021/12/09 03:39:54;;;;;;;;;;;5.90;60.60;;;;;;5053246;28;19974;-64
2021/12/09 03:42:21;;;;;;;;;;;5.90;60.60;;;;;;5065575;28;20396;-64
2021/12/09 03:44:47;;;;;;;;;;;5.90;60.60;;;;;;5059127;28;19913;-64
2021/12/09 03:47:14;;;;;;;;;;;5.90;60.60;;;;;;5053436;28;20340;-64
2021/12/09 03:49:42;;;;;;;;;;;5.90;60.50;;;;;;5071875;28;20024;-64
2021/12/09 03:52:08;;;;;;;;;;;5.90;60.50;;;;;;5070107;28;19921;-64
2021/12/09 03:54:34;;;;;;;;;;;5.90;60.60;;;;;;5069959;28;19935;-64
2021/12/09 03:57:00;;;;;;;;;;;5.90;60.60;;;;;;5072260;28;19955;-64
2021/12/09 03:59:25;;;;;;;;;;;6.00;60.60;;;;;;5065987;28;20014;-64
2021/12/09 04:01:51;;;;;;;;;;;5.90;60.50;;;;;;5052174;28;20286;-64
2021/12/09 04:04:17;;;;;;;;;;;5.90;60.40;;;;;;5052034;28;19956;-64
2021/12/09 04:06:44;;;;;;;;;;;5.90;60.40;;;;;;5052359;28;19913;-64
2021/12/09 04:09:11;;;;;;;;;;;5.90;59.90;;;;;;5050927;28;19916;-64
2021/12/09 04:11:37;;;;;;;;;;;5.90;60.50;;;;;;5052241;28;20355;-64
2021/12/09 04:14:03;;;;;;;;;;;5.90;60.50;;;;;;5051985;28;19916;-65
2021/12/09 04:16:29;;;;;;;;;;;5.90;60.60;;;;;;5051809;28;20015;-64
2021/12/09 04:18:55;;;;;;;;;;;5.90;60.60;;;;;;5052176;28;19996;-64
2021/12/09 04:21:20;;;;;;;;;;;5.90;60.60;;;;;;5052136;28;19949;-64
2021/12/09 04:23:46;;;;;;;;;;;5.90;60.50;;;;;;5051962;28;19935;-64
2021/12/09 04:26:12;;;;;;;;;;;5.90;60.50;;;;;;5052069;28;20019;-64
2021/12/09 04:28:39;;;;;;;;;;;6.00;60.60;;;;;;5051573;28;20399;-64
2021/12/09 04:31:05;;;;;;;;;;;6.00;60.60;;;;;;5062155;28;20014;-64
2021/12/09 04:33:30;;;;;;;;;;;6.00;60.70;;;;;;5057477;28;20343;-64
2021/12/09 04:35:56;;;;;;;;;;;6.00;60.60;;;;;;5051797;28;19963;-64
2021/12/09 04:38:22;;;;;;;;;;;5.90;60.60;;;;;;5051972;28;19909;-64
2021/12/09 04:40:48;;;;;;;;;;;5.90;60.50;;;;;;5057293;28;19917;-64
2021/12/09 04:43:14;;;;;;;;;;;6.00;60.70;;;;;;5062038;28;19908;-64
2021/12/09 04:45:40;;;;;;;;;;;6.00;60.70;;;;;;5051644;28;19982;-64
2021/12/09 04:48:06;;;;;;;;;;;6.00;60.60;;;;;;5051778;28;19931;-64
2021/12/09 04:50:33;;;;;;;;;;;6.00;60.60;;;;;;5051835;28;19909;-64
2021/12/09 04:52:59;;;;;;;;;;;6.00;60.60;;;;;;5052393;28;19940;-64
2021/12/09 04:55:24;;;;;;;;;;;6.00;60.60;;;;;;5052583;28;19948;-64
2021/12/09 04:57:50;;;;;;;;;;;6.00;60.60;;;;;;5052298;28;19913;-64
2021/12/09 05:00:17;;;;;;;;;;;6.00;60.50;;;;;;5052508;28;19909;-64
2021/12/09 05:05:20;;;;;;;;;;;6.00;60.70;;;;;;5052610;28;19919;-64
2021/12/09 05:07:47;;;;;;;;;;;6.00;60.70;;;;;;5052355;28;20341;-64
2021/12/09 05:10:15;;;;;;;;;;;6.00;60.70;;;;;;5052298;28;20397;-64
2021/12/09 05:12:41;;;;;;;;;;;6.00;60.60;;;;;;5051015;28;19909;-64
2021/12/09 05:15:07;;;;;;;;;;;6.10;60.70;;;;;;5052294;28;19913;-64
2021/12/09 05:17:33;;;;;;;;;;;6.10;60.70;;;;;;5052210;28;19939;-64
2021/12/09 05:19:59;;;;;;;;;;;6.10;60.90;;;;;;5071806;28;20410;-64
2021/12/09 05:22:24;;;;;;;;;;;6.10;60.60;;;;;;5072316;28;19913;-64
2021/12/09 05:24:52;;;;;;;;;;;6.10;60.60;;;;;;5072499;28;19909;-64
2021/12/09 05:27:18;;;;;;;;;;;6.10;60.60;;;;;;5070225;28;20429;-64
2021/12/09 05:29:46;;;;;;;;;;;6.10;60.60;;;;;;5072121;28;19931;-64
2021/12/09 05:32:12;;;;;;;;;;;6.10;60.50;;;;;;5070464;28;20277;-64
2021/12/09 05:34:42;;;;;;;;;;;6.10;60.50;;;;;;5072450;28;19912;-64
2021/12/09 05:37:10;;;;;;;;;;;6.10;60.50;;;;;;5072313;28;20012;-64
2021/12/09 05:39:36;;;;;;;;;;;6.10;60.50;;;;;;5072548;28;19931;-64
2021/12/09 05:42:03;;;;;;;;;;;6.10;60.50;;;;;;5074315;28;19916;-64
2021/12/09 05:44:29;;;;;;;;;;;6.10;60.50;;;;;;5056696;28;19913;-64
2021/12/09 05:46:55;;;;;;;;;;;6.10;60.50;;;;;;5054345;28;20271;-64
2021/12/09 05:49:21;;;;;;;;;;;6.20;60.60;;;;;;5055578;28;19920;-63
2021/12/09 05:51:47;;;;;;;;;;;6.20;60.50;;;;;;5055529;28;19975;-64
2021/12/09 05:54:13;;;;;;;;;;;6.20;60.60;;;;;;5055503;28;19913;-64
2021/12/09 05:56:38;;;;;;;;;;;6.20;60.50;;;;;;5055182;28;19920;-64
2021/12/09 05:59:05;;;;;;;;;;;6.10;60.40;;;;;;5055309;28;19963;-64
2021/12/09 06:01:31;;;;;;;;;;;6.20;60.50;;;;;;5055327;28;19909;-64
2021/12/09 06:03:56;;;;;;;;;;;6.20;60.50;;;;;;5055329;28;19992;-63
2021/12/09 06:06:22;;;;;;;;;;;6.20;60.50;;;;;;5055271;28;19916;-63
2021/12/09 06:08:48;;;;;;;;;;;6.20;60.60;;;;;;5068068;28;20285;-64
2021/12/09 06:11:14;;;;;;;;;;;6.20;60.60;;;;;;5073814;28;20274;-64
2021/12/09 06:13:40;;;;;;;;;;;6.20;60.60;;;;;;5074936;28;20119;-64
2021/12/09 06:16:06;;;;;;;;;;;6.20;60.60;;;;;;5074861;28;20335;-64
2021/12/09 06:18:32;;;;;;;;;;;6.20;60.60;;;;;;5074827;28;20075;-63
2021/12/09 06:20:58;;;;;;;;;;;6.20;60.60;;;;;;5073036;28;20013;-63
2021/12/09 06:23:23;;;;;;;;;;;6.20;60.50;;;;;;5074761;28;19916;-64
2021/12/09 06:25:50;;;;;;;;;;;6.20;60.50;;;;;;5074913;28;19905;-64
2021/12/09 06:28:18;;;;;;;;;;;6.20;60.60;;;;;;5074706;28;19916;-63
2021/12/09 06:30:45;;;;;;;;;;;6.20;60.60;;;;;;5074712;28;19904;-64
2021/12/09 06:33:10;;;;;;;;;;;6.20;60.60;;;;;;5072832;28;19935;-64
2021/12/09 06:35:36;;;;;;;;;;;6.20;60.60;;;;;;5074625;28;20048;-63
2021/12/09 06:38:03;;;;;;;;;;;6.20;60.70;;;;;;5074537;28;19912;-64
2021/12/09 06:40:28;;;;;;;;;;;6.20;60.70;;;;;;5074449;28;20050;-64
2021/12/09 06:42:54;;;;;;;;;;;6.20;60.70;;;;;;5074557;28;19948;-64
2021/12/09 06:45:21;;;;;;;;;;;6.20;60.70;;;;;;5072892;28;19920;-64
2021/12/09 06:47:47;;;;;;;;;;;6.20;60.80;;;;;;5074456;28;19952;-64
2021/12/09 06:50:14;;;;;;;;;;;6.20;60.70;;;;;;5074253;28;20253;-64
2021/12/09 06:52:40;;;;;;;;;;;6.20;60.70;;;;;;5074069;28;19909;-64
2021/12/09 06:55:07;;;;;;;;;;;6.20;60.70;;;;;;5069024;28;19916;-64
2021/12/09 06:57:32;;;;;;;;;;;6.20;60.70;;;;;;5054166;28;19913;-64
2021/12/09 06:59:58;;;;;;;;;;;6.20;60.70;;;;;;5052831;28;20003;-64
2021/12/09 07:02:23;;;;;;;;;;;6.10;60.70;;;;;;5057646;28;19909;-64
2021/12/09 07:04:49;;;;;;;;;;;6.10;60.70;;;;;;5074142;28;19944;-64
2021/12/09 07:07:15;;;;;;;;;;;6.10;60.70;;;;;;5074151;28;20282;-64
2021/12/09 07:09:40;;;;;;;;;;;6.10;60.70;;;;;;5072531;28;20014;-63
2021/12/09 07:12:07;;;;;;;;;;;6.10;60.70;;;;;;5074185;28;19913;-64
2021/12/09 07:14:32;;;;;;;;;;;6.10;60.70;;;;;;5073842;28;19916;-63
2021/12/09 07:16:58;;;;;;;;;;;6.10;60.70;;;;;;5073855;28;19920;-64
2021/12/09 07:19:24;;;;;;;;;;;6.10;60.80;;;;;;5070211;28;20247;-65
2021/12/09 07:21:49;;;;;;;;;;;6.10;60.70;;;;;;5053680;28;20283;-65
2021/12/09 07:24:15;;;;;;;;;;;6.10;60.80;;;;;;5054095;28;20354;-65
2021/12/09 07:26:41;;;;;;;;;;;6.10;60.80;;;;;;5053824;28;19913;-65
2021/12/09 07:29:06;;;;;;;;;;;6.20;60.90;;;;;;5053646;28;19912;-65
2021/12/09 07:31:32;;;;;;;;;;;6.20;60.90;;;;;;5053665;28;20274;-65
2021/12/09 07:33:59;;;;;;;;;;;6.20;60.90;;;;;;5053604;28;19946;-63
2021/12/09 07:36:25;;;;;;;;;;;6.20;60.90;;;;;;5053546;28;19917;-63
2021/12/09 07:38:50;;;;;;;;;;;6.20;61.00;;;;;;5053572;28;19913;-65
2021/12/09 07:41:16;;;;;;;;;;;6.30;61.00;;;;;;5052360;28;19995;-63
2021/12/09 07:43:43;;;;;;;;;;;6.30;61.00;;;;;;5053415;28;19970;-64
2021/12/09 07:46:09;;;;;;;;;;;6.30;61.00;;;;;;5053272;28;19913;-64
2021/12/09 07:48:34;;;;;;;;;;;6.40;61.00;;;;;;5053203;28;19916;-64
2021/12/09 07:51:00;;;;;;;;;;;6.40;61.00;;;;;;5053196;28;20342;-64
2021/12/09 07:53:26;;;;;;;;;;;6.40;60.90;;;;;;5053047;28;19921;-64
2021/12/09 07:55:52;;;;;;;;;;;6.40;60.70;;;;;;5053203;28;19916;-64
2021/12/09 07:58:18;;;;;;;;;;;6.40;60.70;;;;;;5053265;28;19916;-63
2021/12/09 08:00:44;;;;;;;;;;;6.50;60.70;;;;;;5051538;28;19920;-64
2021/12/09 08:03:13;;;;;;;;;;;6.40;60.60;;;;;;5052623;28;20278;-64
2021/12/09 08:05:40;;;;;;;;;;;6.40;60.60;;;;;;5053145;28;19909;-64
2021/12/09 08:08:06;;;;;;;;;;;6.50;60.60;;;;;;5053107;28;19909;-64
2021/12/09 08:10:32;;;;;;;;;;;6.50;60.60;;;;;;5052950;28;19913;-64
2021/12/09 08:12:59;;;;;;;;;;;6.50;60.60;;;;;;5053012;28;20328;-64
2021/12/09 08:15:25;;;;;;;;;;;6.50;60.60;;;;;;5052765;28;19943;-65
2021/12/09 08:17:59;;;;;;;;;;;6.60;60.60;;;;;;5052926;28;19921;-64
2021/12/09 08:20:26;;;;;;;;;;;6.60;60.60;;;;;;5052910;28;19948;-64
2021/12/09 08:22:52;;;;;;;;;;;6.60;60.60;;;;;;5052803;28;19959;-64
2021/12/09 08:25:17;;;;;;;;;;;6.70;60.60;;;;;;5052860;28;19909;-64
2021/12/09 08:27:43;;;;;;;;;;;6.70;60.50;;;;;;5051657;28;19955;-64
2021/12/09 08:30:11;;;;;;;;;;;6.70;60.60;;;;;;5052753;28;20289;-65
2021/12/09 08:32:36;;;;;;;;;;;6.70;60.50;;;;;;5052759;28;20358;-63
2021/12/09 08:35:02;;;;;;;;;;;6.70;60.50;;;;;;5052785;28;19909;-65
2021/12/09 08:37:29;;;;;;;;;;;6.80;60.50;;;;;;5052692;28;20389;-63
2021/12/09 08:39:55;;;;;;;;;;;6.80;60.50;;;;;;5051231;28;20016;-65
2021/12/09 08:42:21;;;;;;;;;;;6.80;60.50;;;;;;5052684;28;19908;-65
2021/12/09 08:44:47;;;;;;;;;;;6.90;60.50;;;;;;5053064;28;19913;-65
2021/12/09 08:47:12;;;;;;;;;;;6.90;60.40;;;;;;5052405;28;19915;-67
2021/12/09 08:49:38;;;;;;;;;;;6.90;60.40;;;;;;5052604;28;19919;-65
2021/12/09 08:52:04;;;;;;;;;;;6.90;60.40;;;;;;5052548;28;20389;-64
2021/12/09 08:54:30;;;;;;;;;;;6.90;60.40;;;;;;5052871;28;19980;-64
2021/12/09 08:56:56;;;;;;;;;;;7.00;60.40;;;;;;5052466;28;19986;-64
2021/12/09 08:59:22;;;;;;;;;;;7.00;60.40;;;;;;5052566;28;19909;-65
2021/12/09 09:01:48;;;;;;;;;;;7.00;60.30;;;;;;5065677;28;19908;-64
2021/12/09 09:04:14;;;;;;;;;;;7.00;60.20;;;;;;5063341;28;19959;-64
2021/12/09 09:06:53;;;;;;;;;;;7.00;60.20;;;;;;5052409;28;19913;-64
2021/12/09 09:09:18;;;;;;;;;;;7.00;60.20;;;;;;5052459;28;19915;-64
2021/12/09 09:11:44;;;;;;;;;;;7.00;60.30;;;;;;5052419;28;20367;-64
2021/12/09 09:14:10;;;;;;;;;;;7.00;60.20;;;;;;5052414;28;19959;-65
2021/12/09 09:16:35;;;;;;;;;;;7.10;60.20;;;;;;5055685;28;19921;-64
2021/12/09 09:19:01;;;;;;;;;;;7.10;60.10;;;;;;5056092;28;20367;-63
2021/12/09 09:21:28;;;;;;;;;;;7.10;60.00;;;;;;5060752;28;19913;-63
2021/12/09 09:23:55;;;;;;;;;;;7.10;60.00;;;;;;5074701;28;20397;-63
2021/12/09 09:26:20;;;;;;;;;;;7.10;60.00;;;;;;5074569;28;19912;-64
2021/12/09 09:28:46;;;;;;;;;;;7.10;60.00;;;;;;5076014;28;19908;-64
2021/12/09 09:31:12;;;;;;;;;;;7.10;60.00;;;;;;5075095;28;20392;-63
2021/12/09 09:33:37;;;;;;;;;;;7.00;59.90;;;;;;5075837;28;19909;-63
2021/12/09 09:36:03;;;;;;;;;;;7.00;59.80;;;;;;5058498;28;19986;-63
2021/12/09 09:38:29;;;;;;;;;;;7.00;60.00;;;;;;5060764;28;19921;-63
2021/12/09 09:41:08;;;;;;;;;;;7.00;60.40;;;;;;5055732;28;20358;-63
2021/12/09 09:43:57;;;;;;;;;;;7.00;60.40;;;;;;5055711;28;20366;-63
2021/12/09 09:46:28;;;;;;;;;;;7.00;60.40;;;;;;5055686;28;19915;-63
2021/12/09 09:48:54;;;;;;;;;;;7.10;60.50;;;;;;5055758;28;20004;-63
2021/12/09 09:51:21;;;;;;;;;;;7.10;60.60;;;;;;5055472;28;19909;-63
2021/12/09 09:53:47;;;;;;;;;;;7.10;60.60;;;;;;5055608;28;19999;-63
2021/12/09 09:56:16;;;;;;;;;;;7.20;60.60;;;;;;5055457;28;19916;-63
2021/12/09 09:59:02;;;;;;;;;;;7.20;60.50;;;;;;5055473;28;20366;-63
2021/12/09 10:01:29;;;;;;;;;;;7.20;60.60;;;;;;5054977;28;19912;-64
2021/12/09 10:04:09;;;;;;;;;;;7.20;60.40;;;;;;5055298;28;19948;-64
2021/12/09 10:06:35;;;;;;;;;;;7.20;60.30;;;;;;5055426;28;19979;-63
2021/12/09 10:09:01;;;;;;;;;;;7.20;60.10;;;;;;5053990;28;19959;-63
2021/12/09 10:11:26;;;;;;;;;;;7.20;60.10;;;;;;5055173;28;19996;-63
2021/12/09 10:13:52;;;;;;;;;;;7.20;60.00;;;;;;5055001;28;19932;-63
2021/12/09 10:16:20;;;;;;;;;;;7.20;59.80;;;;;;5057283;28;19920;-64
2021/12/09 10:18:49;;;;;;;;;;;7.20;59.70;;;;;;5058758;28;20346;-65
2021/12/09 10:21:22;;;;;;;;;;;7.10;59.60;;;;;;5054817;28;19909;-65
2021/12/09 10:23:55;;;;;;;;;;;7.10;59.70;;;;;;5054927;28;19953;-65
2021/12/09 10:26:23;;;;;;;;;;;7.10;59.80;;;;;;5068846;28;20362;-65
2021/12/09 10:29:07;;;;;;;;;;;7.10;60.00;;;;;;5061242;28;19912;-65
2021/12/09 10:31:35;;;;;;;;;;;7.10;60.10;;;;;;5065782;28;19915;-65
2021/12/09 10:34:20;;;;;;;;;;;7.10;60.30;;;;;;5074601;28;20003;-65
2021/12/09 10:36:45;;;;;;;;;;;7.10;60.30;;;;;;5074612;28;20345;-65
2021/12/09 10:39:15;;;;;;;;;;;7.10;60.20;;;;;;5074693;28;19951;-65
2021/12/09 10:41:41;;;;;;;;;;;7.10;61.00;;;;;;5074823;28;19913;-65
2021/12/09 10:44:06;;;;;;;;;;;7.20;60.30;;;;;;5054492;28;19908;-65
2021/12/09 10:46:50;;;;;;;;;;;7.20;60.30;;;;;;5062493;28;19908;-65
2021/12/09 10:49:17;;;;;;;;;;;7.20;60.20;;;;;;5071158;28;20047;-65
2021/12/09 10:51:55;;;;;;;;;;;7.20;60.10;;;;;;5068261;28;20274;-65
2021/12/09 10:54:32;;;;;;;;;;;7.20;60.20;;;;;;5074519;28;20377;-65
2021/12/09 10:57:18;;;;;;;;;;;7.20;60.20;;;;;;5074361;28;19919;-65
2021/12/09 10:59:43;;;;;;;;;;;7.30;60.30;;;;;;5074245;28;19908;-65
2021/12/09 11:02:09;;;;;;;;;;;7.30;60.50;;;;;;5074331;28;20003;-65
2021/12/09 11:04:35;;;;;;;;;;;7.40;60.60;;;;;;5067474;28;19913;-65
2021/12/09 11:07:17;;;;;;;;;;;7.40;60.60;;;;;;5074178;28;19905;-65
2021/12/09 11:09:43;;;;;;;;;;;7.50;60.60;;;;;;5074212;28;19915;-65
2021/12/09 11:12:26;;;;;;;;;;;7.50;60.40;;;;;;5074044;28;19904;-65
2021/12/09 11:14:58;;;;;;;;;;;7.50;60.20;;;;;;5073901;28;19909;-65
2021/12/09 11:17:34;;;;;;;;;;;7.50;60.20;;;;;;5058939;28;19921;-65
2021/12/09 11:20:02;;;;;;;;;;;7.50;60.20;;;;;;5053990;28;19959;-66
2021/12/09 11:22:33;;;;;;;;;;;7.50;60.20;;;;;;5053837;28;19908;-65
2021/12/09 11:25:03;;;;;;;;;;;7.50;60.10;;;;;;5053816;28;19909;-65
2021/12/09 11:27:30;;;;;;;;;;;7.60;60.20;;;;;;5052558;28;19944;-65
2021/12/09 11:30:07;;;;;;;;;;;7.60;60.10;;;;;;5055574;28;19921;-66
2021/12/09 11:35:23;;;;;;;;;;;7.60;60.10;;;;;;5070790;28;20361;-66
2021/12/09 11:40:51;;;;;;;;;;;7.60;59.90;;;;;;5053398;28;20305;-66
2021/12/09 11:43:18;;;;;;;;;;;7.60;60.10;;;;;;5052900;28;19909;-66
2021/12/09 11:45:44;;;;;;;;;;;7.60;60.00;;;;;;5060034;28;19995;-66
2021/12/09 11:48:11;;;;;;;;;;;7.60;60.10;;;;;;5073037;28;19905;-66
2021/12/09 11:50:57;;;;;;;;;;;7.60;60.00;;;;;;5056624;28;19956;-66
2021/12/09 11:53:26;;;;;;;;;;;7.60;60.10;;;;;;5062721;28;19925;-66
2021/12/09 11:56:07;;;;;;;;;;;7.60;60.00;;;;;;5052213;28;19999;-66
2021/12/09 11:58:40;;;;;;;;;;;7.60;59.90;;;;;;5063995;28;19908;-66
2021/12/09 12:15:23;;;;;;;;;;;7.60;60.60;;;;;;5073056;28;20385;-67
2021/12/09 12:18:30;;;;;;;;;;;7.70;60.60;;;;;;5072984;28;19916;-67
2021/12/09 12:23:54;;;;;;;;;;;7.70;60.40;;;;;;5063536;28;19909;-67
2021/12/09 12:37:43;;;;;;;;;;;7.80;60.10;;;;;;5067276;28;20335;-67
2021/12/09 12:40:10;;;;;;;;;;;7.80;60.30;;;;;;5072638;28;20012;-67
2021/12/09 12:51:06;;;;;;;;;;;7.80;60.10;;;;;;5062150;28;19913;-67
2021/12/09 12:53:32;;;;;;;;;;;7.80;60.00;;;;;;5056448;28;20013;-67
2021/12/09 12:56:16;;;;;;;;;;;7.70;60.00;;;;;;5078779;28;19974;-67
2021/12/09 12:59:01;;;;;;;;;;;7.70;60.00;;;;;;5071986;28;19961;-67
2021/12/09 13:01:27;;;;;;;;;;;7.70;60.00;;;;;;5067306;28;19913;-67
2021/12/09 13:03:57;;;;;;;;;;;7.70;60.20;;;;;;5060732;28;19931;-68
2021/12/09 13:06:39;;;;;;;;;;;7.70;60.20;;;;;;5059656;28;20492;-67
2021/12/09 13:09:33;;;;;;;;;;;7.70;60.00;;;;;;5061677;28;19935;-67
2021/12/09 13:12:04;;;;;;;;;;;7.70;60.00;;;;;;5058801;28;20011;-68
2021/12/09 13:14:33;;;;;;;;;;;7.70;59.90;;;;;;5055646;28;19913;-68
2021/12/09 13:17:04;;;;;;;;;;;7.70;59.90;;;;;;5055311;28;19927;-68
2021/12/09 13:19:35;;;;;;;;;;;7.70;60.00;;;;;;5055031;28;19996;-68
2021/12/09 13:22:02;;;;;;;;;;;7.70;60.10;;;;;;5074620;28;19904;-67
2021/12/09 13:33:03;;;;;;;;;;;7.60;59.90;;;;;;5063818;28;19990;-67
2021/12/09 13:35:48;;;;;;;;;;;7.60;59.90;;;;;;5054748;28;19955;-67
2021/12/09 13:48:49;;;;;;;;;;;7.50;60.00;;;;;;5055044;28;20277;-67
2021/12/09 13:54:24;;;;;;;;;;;7.50;60.20;;;;;;5054590;28;20388;-67
2021/12/09 13:56:57;;;;;;;;;;;7.50;60.20;;;;;;5054553;28;19966;-68
2021/12/09 13:59:24;;;;;;;;;;;7.50;60.40;;;;;;5055713;28;20374;-68
2021/12/09 14:01:50;;;;;;;;;;;7.50;60.50;;;;;;5062227;28;19905;-68
2021/12/09 14:04:20;;;;;;;;;;;7.50;60.50;;;;;;5074400;28;20336;-68
2021/12/09 14:06:55;;;;;;;;;;;7.50;60.50;;;;;;5059065;28;20451;-68
2021/12/09 14:09:23;;;;;;;;;;;7.50;60.50;;;;;;5058000;28;19913;-68
2021/12/09 14:11:50;;;;;;;;;;;7.50;60.50;;;;;;5060244;28;20255;-68
2021/12/09 14:14:20;;;;;;;;;;;7.50;60.50;;;;;;5072086;28;20354;-68
2021/12/09 14:16:54;;;;;;;;;;;7.50;60.50;;;;;;5069082;28;19960;-67
2021/12/09 14:21:48;;;;;;;;;;;7.40;60.50;;;;;;5054686;28;20389;-68
2021/12/09 14:24:16;;;;;;;;;;;7.40;60.60;;;;;;5052965;28;19916;-67
2021/12/09 14:26:42;;;;;;;;;;;7.40;60.60;;;;;;5053055;28;19909;-68
2021/12/09 14:29:09;;;;;;;;;;;7.30;60.50;;;;;;5054411;28;20011;-68
2021/12/09 14:31:43;;;;;;;;;;;7.40;60.60;;;;;;5074180;28;19913;-67
2021/12/09 14:34:09;;;;;;;;;;;7.30;60.50;;;;;;5073608;28;19916;-67
2021/12/09 14:36:35;;;;;;;;;;;7.30;60.60;;;;;;5073466;28;20012;-67
2021/12/09 14:39:04;;;;;;;;;;;7.30;60.60;;;;;;5073099;28;19999;-68
2021/12/09 14:41:30;;;;;;;;;;;7.20;60.50;;;;;;5054430;28;19913;-68
2021/12/09 14:43:56;;;;;;;;;;;7.20;60.50;;;;;;5053741;28;19909;-68
2021/12/09 14:46:26;;;;;;;;;;;7.20;60.60;;;;;;5052361;28;19958;-68
2021/12/09 14:48:52;;;;;;;;;;;7.20;60.60;;;;;;5052282;28;19916;-68
2021/12/09 14:51:17;;;;;;;;;;;7.20;60.60;;;;;;5053505;28;19912;-67
2021/12/09 14:53:45;;;;;;;;;;;7.10;60.50;;;;;;5052309;28;20066;-67
2021/12/09 14:56:21;;;;;;;;;;;7.10;60.60;;;;;;5053446;28;19978;-68
2021/12/09 14:58:47;;;;;;;;;;;7.10;60.60;;;;;;5053499;28;19913;-68
2021/12/09 15:01:16;;;;;;;;;;;7.00;60.80;;;;;;5053509;28;20281;-68
2021/12/09 15:03:51;;;;;;;;;;;7.00;60.90;;;;;;5053474;28;19946;-67
2021/12/09 15:06:22;;;;;;;;;;;7.00;61.00;;;;;;5052126;28;20414;-68
2021/12/09 15:08:50;;;;;;;;;;;7.00;61.00;;;;;;5053450;28;19944;-68
2021/12/09 15:11:17;;;;;;;;;;;7.00;61.00;;;;;;5056286;28;19917;-68
2021/12/09 15:13:47;;;;;;;;;;;7.00;61.10;;;;;;5051936;28;19909;-68
2021/12/09 15:16:16;;;;;;;;;;;7.00;61.20;;;;;;5069104;28;19959;-68
2021/12/09 15:18:41;;;;;;;;;;;7.00;61.20;;;;;;5071899;28;20365;-69
2021/12/09 15:21:17;;;;;;;;;;;6.90;61.10;;;;;;5056785;28;19913;-68
2021/12/09 15:23:45;;;;;;;;;;;6.90;61.20;;;;;;5051847;28;20412;-67
2021/12/09 15:26:13;;;;;;;;;;;6.90;61.20;;;;;;5052975;28;20037;-67
2021/12/09 15:28:39;;;;;;;;;;;6.90;62.00;;;;;;5051689;28;19971;-67
2021/12/09 15:31:05;;;;;;;;;;;6.90;61.30;;;;;;5052775;28;19913;-68
2021/12/09 15:33:42;;;;;;;;;;;6.90;61.40;;;;;;5052967;28;19909;-67
2021/12/09 15:36:07;;;;;;;;;;;6.90;61.40;;;;;;5052694;28;19920;-68
2021/12/09 15:38:34;;;;;;;;;;;6.80;61.40;;;;;;5055070;28;20275;-67
2021/12/09 15:40:59;;;;;;;;;;;6.80;61.40;;;;;;5058998;28;19919;-68
2021/12/09 15:43:26;;;;;;;;;;;6.80;61.40;;;;;;5051127;28;20293;-68
2021/12/09 15:45:58;;;;;;;;;;;6.80;61.40;;;;;;5052592;28;19916;-67